createdAt,value
2019-03-18T00:00:58.531Z,3.90
2019-03-18T00:03:29.060Z,3.95
2019-03-18T00:05:58.773Z,3.86
2019-03-18T00:08:29.248Z,3.79
2019-03-18T00:11:03.135Z,3.83
2019-03-18T00:13:32.371Z,3.71
2019-03-18T00:16:02.119Z,3.67
2019-03-18T00:18:31.956Z,3.67
2019-03-18T00:21:01.347Z,3.42
2019-03-18T00:23:31.264Z,3.47
2019-03-18T00:26:01.128Z,3.45
2019-03-18T00:28:31.488Z,3.45
2019-03-18T00:31:00.974Z,3.32
2019-03-18T00:33:30.543Z,3.32
2019-03-18T00:36:02.038Z,3.31
2019-03-18T00:38:32.217Z,3.38
2019-03-18T00:41:02.158Z,3.27
2019-03-18T00:43:31.545Z,3.18
2019-03-18T00:46:01.123Z,3.11
2019-03-18T00:48:31.476Z,3.13
2019-03-18T00:51:01.646Z,3.15
2019-03-18T00:53:31.066Z,3.19
2019-03-18T00:56:04.462Z,3.13
2019-03-18T00:58:34.582Z,3.14
2019-03-18T01:01:04.410Z,3.21
2019-03-18T01:03:34.506Z,3.21
2019-03-18T01:06:05.798Z,3.16
2019-03-18T01:08:35.535Z,3.21
2019-03-18T01:11:05.952Z,3.18
2019-03-18T01:13:35.822Z,3.18
2019-03-18T01:16:05.456Z,3.13
2019-03-18T01:18:34.918Z,3.18
2019-03-18T01:21:09.967Z,3.18
2019-03-18T01:23:39.459Z,3.14
2019-03-18T01:26:09.238Z,3.14
2019-03-18T01:28:40.235Z,3.05
2019-03-18T01:31:11.228Z,3.05
2019-03-18T01:33:41.226Z,3.13
2019-03-18T01:36:13.333Z,3.13
2019-03-18T01:38:44.342Z,3.00
2019-03-18T01:41:16.497Z,2.98
2019-03-18T01:43:46.568Z,2.98
2019-03-18T01:46:18.137Z,2.92
2019-03-18T01:48:49.419Z,2.86
2019-03-18T01:51:19.109Z,2.83
2019-03-18T01:53:50.151Z,2.88
2019-03-18T01:56:21.884Z,3.00
2019-03-18T01:58:53.921Z,2.95
2019-03-18T02:01:25.658Z,2.98
2019-03-18T02:03:55.229Z,2.91
2019-03-18T02:06:25.045Z,2.90
2019-03-18T02:09:10.878Z,2.79
2019-03-18T02:11:47.797Z,2.81
2019-03-18T02:14:18.818Z,2.85
2019-03-18T02:16:53.501Z,2.74
2019-03-18T02:19:28.010Z,2.92
2019-03-18T02:22:00.087Z,2.68
2019-03-18T02:24:31.637Z,2.86
2019-03-18T02:27:02.683Z,2.91
2019-03-18T02:29:31.831Z,2.92
2019-03-18T02:32:01.436Z,2.82
2019-03-18T02:34:35.891Z,2.89
2019-03-18T02:37:06.306Z,2.81
2019-03-18T02:39:44.073Z,2.74
2019-03-18T02:42:13.672Z,2.83
2019-03-18T02:44:55.458Z,2.73
2019-03-18T02:47:25.816Z,2.71
2019-03-18T02:49:56.382Z,2.73
2019-03-18T02:52:29.182Z,2.69
2019-03-18T02:54:58.811Z,2.69
2019-03-18T02:57:28.589Z,2.65
2019-03-18T02:59:58.254Z,2.61
2019-03-18T03:02:29.928Z,2.60
2019-03-18T03:05:00.024Z,2.59
2019-03-18T03:07:33.677Z,2.60
2019-03-18T03:10:03.439Z,2.63
2019-03-18T03:12:36.336Z,2.71
2019-03-18T03:15:08.796Z,2.74
2019-03-18T03:17:40.364Z,2.73
2019-03-18T03:20:13.296Z,2.67
2019-03-18T03:22:48.424Z,2.71
2019-03-18T03:25:28.012Z,2.61
2019-03-18T03:27:57.981Z,2.64
2019-03-18T03:30:29.892Z,2.67
2019-03-18T03:33:04.814Z,2.66
2019-03-18T03:35:34.786Z,2.62
2019-03-18T03:38:04.506Z,2.60
2019-03-18T03:40:35.813Z,2.48
2019-03-18T03:43:12.234Z,2.51
2019-03-18T03:45:44.973Z,2.56
2019-03-18T03:48:15.186Z,2.43
2019-03-18T03:50:46.716Z,2.50
2019-03-18T03:53:30.708Z,2.57
2019-03-18T03:56:01.002Z,2.49
2019-03-18T03:58:34.489Z,2.48
2019-03-18T04:01:07.587Z,2.48
2019-03-18T04:03:39.015Z,2.53
2019-03-18T04:06:10.200Z,2.47
2019-03-18T04:08:42.544Z,2.53
2019-03-18T04:11:12.509Z,2.45
2019-03-18T04:13:46.635Z,2.48
2019-03-18T04:16:22.471Z,2.47
2019-03-18T04:18:54.644Z,2.55
2019-03-18T04:21:29.325Z,2.50
2019-03-18T04:23:59.297Z,2.49
2019-03-18T04:26:30.564Z,2.47
2019-03-18T04:29:03.614Z,2.50
2019-03-18T04:31:33.947Z,2.54
2019-03-18T04:34:03.427Z,2.58
2019-03-18T04:36:33.714Z,2.61
2019-03-18T04:39:05.092Z,2.72
2019-03-18T04:41:35.213Z,2.68
2019-03-18T04:44:04.871Z,2.75
2019-03-18T04:46:36.130Z,2.68
2019-03-18T04:49:05.812Z,2.76
2019-03-18T04:51:35.483Z,2.83
2019-03-18T04:54:04.743Z,2.78
2019-03-18T04:56:34.865Z,2.82
2019-03-18T04:59:06.886Z,2.94
2019-03-18T05:01:38.145Z,2.92
2019-03-18T05:04:14.182Z,2.87
2019-03-18T05:06:45.524Z,2.85
2019-03-18T05:09:16.753Z,2.91
2019-03-18T05:11:45.925Z,2.90
2019-03-18T05:14:15.102Z,2.94
2019-03-18T05:16:44.347Z,2.95
2019-03-18T05:19:13.547Z,2.90
2019-03-18T05:21:42.818Z,3.01
2019-03-18T05:24:12.017Z,2.77
2019-03-18T05:26:41.225Z,2.78
2019-03-18T05:29:10.407Z,2.77
2019-03-18T05:31:39.474Z,2.66
2019-03-18T05:34:08.903Z,2.58
2019-03-18T05:36:38.196Z,2.66
2019-03-18T05:39:12.317Z,2.57
2019-03-18T05:41:41.477Z,2.63
2019-03-18T05:44:10.661Z,2.55
2019-03-18T05:46:39.854Z,2.55
2019-03-18T05:49:09.001Z,2.59
2019-03-18T05:51:38.707Z,2.69
2019-03-18T05:54:07.958Z,2.62
2019-03-18T05:56:37.469Z,2.56
2019-03-18T05:59:06.715Z,2.63
2019-03-18T06:01:35.991Z,2.47
2019-03-18T06:04:05.172Z,2.53
2019-03-18T06:06:34.456Z,2.46
2019-03-18T06:09:05.299Z,2.48
2019-03-18T06:11:40.626Z,2.48
2019-03-18T06:14:11.020Z,2.51
2019-03-18T06:16:40.876Z,2.56
2019-03-18T06:19:09.986Z,2.46
2019-03-18T06:21:40.375Z,2.32
2019-03-18T06:24:09.575Z,2.33
2019-03-18T06:26:38.857Z,2.48
2019-03-18T06:31:55.329Z,2.44
2019-03-18T06:34:24.776Z,2.41
2019-03-18T06:36:54.331Z,2.36
2019-03-18T06:39:23.795Z,2.46
2019-03-18T06:41:53.175Z,2.48
2019-03-18T06:44:23.495Z,2.53
2019-03-18T06:46:52.665Z,2.64
2019-03-18T06:49:21.991Z,2.57
2019-03-18T06:51:54.812Z,2.60
2019-03-18T06:54:38.150Z,2.61
2019-03-18T06:57:07.479Z,2.71
2019-03-18T06:59:36.926Z,2.68
2019-03-18T07:02:06.568Z,2.63
2019-03-18T07:04:35.770Z,2.81
2019-03-18T07:07:05.093Z,2.80
2019-03-18T07:09:34.242Z,2.79
2019-03-18T07:12:03.416Z,2.91
2019-03-18T07:14:32.552Z,2.90
2019-03-18T07:17:01.766Z,2.96
2019-03-18T07:19:31.011Z,3.04
2019-03-18T07:22:00.902Z,3.10
2019-03-18T07:24:30.861Z,3.04
2019-03-18T07:27:01.001Z,3.01
2019-03-18T07:29:32.130Z,3.01
2019-03-18T07:32:02.613Z,3.10
2019-03-18T07:34:33.727Z,3.08
2019-03-18T07:37:04.375Z,3.19
2019-03-18T07:39:34.978Z,3.15
2019-03-18T07:42:05.933Z,3.26
2019-03-18T07:44:36.218Z,3.25
2019-03-18T07:47:06.629Z,3.18
2019-03-18T07:49:36.945Z,3.20
2019-03-18T07:52:07.719Z,3.13
2019-03-18T07:54:38.012Z,3.24
2019-03-18T07:57:08.863Z,3.26
2019-03-18T07:59:39.645Z,3.33
2019-03-18T08:02:10.165Z,3.32
2019-03-18T08:04:41.088Z,3.33
2019-03-18T08:07:11.871Z,3.48
2019-03-18T08:09:41.949Z,3.59
2019-03-18T08:12:12.067Z,3.54
2019-03-18T08:14:42.943Z,3.49
2019-03-18T08:17:13.253Z,3.60
2019-03-18T08:19:43.381Z,3.65
2019-03-18T08:22:13.696Z,3.68
2019-03-18T08:24:44.279Z,3.93
2019-03-18T08:27:14.750Z,4.31
2019-03-18T08:29:44.995Z,4.18
2019-03-18T08:32:15.115Z,4.11
2019-03-18T08:34:45.832Z,4.08
2019-03-18T08:37:16.224Z,4.29
2019-03-18T08:39:46.571Z,4.35
2019-03-18T08:42:16.284Z,4.39
2019-03-18T08:44:46.707Z,4.45
2019-03-18T08:47:20.615Z,4.40
2019-03-18T08:49:51.267Z,4.50
2019-03-18T08:52:21.194Z,4.42
2019-03-18T08:54:51.385Z,4.81
2019-03-18T08:57:22.763Z,4.84
2019-03-18T08:59:52.952Z,4.63
2019-03-18T09:02:23.447Z,4.48
2019-03-18T09:04:53.566Z,4.51
2019-03-18T09:07:24.156Z,4.42
2019-03-18T09:09:54.048Z,4.53
2019-03-18T09:12:24.168Z,4.38
2019-03-18T09:14:54.724Z,4.36
2019-03-18T09:17:24.825Z,4.40
2019-03-18T09:19:55.529Z,4.50
2019-03-18T09:22:25.461Z,4.55
2019-03-18T09:24:55.994Z,4.81
2019-03-18T09:27:25.963Z,4.82
2019-03-18T09:29:57.739Z,5.08
2019-03-18T09:32:28.181Z,5.05
2019-03-18T09:34:57.863Z,5.04
2019-03-18T09:37:27.589Z,4.98
2019-03-18T09:39:57.330Z,4.88
2019-03-18T09:42:27.300Z,5.08
2019-03-18T09:44:58.122Z,5.24
2019-03-18T09:47:27.762Z,5.06
2019-03-18T09:49:57.557Z,5.14
2019-03-18T09:52:27.056Z,5.02
2019-03-18T09:54:56.907Z,5.04
2019-03-18T09:57:26.751Z,4.96
2019-03-18T09:59:56.427Z,5.15
2019-03-18T10:02:26.444Z,5.23
2019-03-18T10:04:55.977Z,5.20
2019-03-18T10:07:25.790Z,5.26
2019-03-18T10:09:55.371Z,5.36
2019-03-18T10:12:24.983Z,5.25
2019-03-18T10:14:54.685Z,5.38
2019-03-18T10:17:24.212Z,5.53
2019-03-18T10:19:53.829Z,5.62
2019-03-18T10:22:23.514Z,5.56
2019-03-18T10:24:53.332Z,5.47
2019-03-18T10:27:23.075Z,5.46
2019-03-18T10:29:53.067Z,5.41
2019-03-18T10:32:24.216Z,5.26
2019-03-18T10:34:53.439Z,5.28
2019-03-18T10:37:22.655Z,5.34
2019-03-18T10:39:51.903Z,5.45
2019-03-18T10:42:21.094Z,5.50
2019-03-18T10:44:50.634Z,5.62
2019-03-18T10:47:21.596Z,5.53
2019-03-18T10:49:50.861Z,5.54
2019-03-18T10:52:20.912Z,5.58
2019-03-18T10:54:50.391Z,5.74
2019-03-18T10:57:20.414Z,5.73
2019-03-18T10:59:50.583Z,5.82
2019-03-18T11:02:20.276Z,5.65
2019-03-18T11:04:50.828Z,5.71
2019-03-18T11:07:20.139Z,5.86
2019-03-18T11:09:49.726Z,5.71
2019-03-18T11:12:19.133Z,5.83
2019-03-18T11:14:48.707Z,5.83
2019-03-18T11:17:18.174Z,5.79
2019-03-18T11:19:57.753Z,5.63
2019-03-18T11:22:18.261Z,5.56
2019-03-18T11:24:47.790Z,5.53
2019-03-18T11:27:17.800Z,5.47
2019-03-18T11:29:48.228Z,5.63
2019-03-18T11:32:17.598Z,6.06
2019-03-18T11:34:47.639Z,6.22
2019-03-18T11:37:17.000Z,6.23
2019-03-18T11:39:47.024Z,6.46
2019-03-18T11:42:16.414Z,6.37
2019-03-18T11:44:46.082Z,6.59
2019-03-18T11:47:16.450Z,6.64
2019-03-18T11:49:46.319Z,6.52
2019-03-18T11:52:17.455Z,6.48
2019-03-18T11:54:47.556Z,6.58
2019-03-18T11:57:17.688Z,6.83
2019-03-18T11:59:47.537Z,6.54
2019-03-18T12:02:27.244Z,6.32
2019-03-18T12:04:49.239Z,6.11
2019-03-18T12:07:19.181Z,5.81
2019-03-18T12:09:49.400Z,5.47
2019-03-18T12:12:19.561Z,5.28
2019-03-18T12:14:49.905Z,5.25
2019-03-18T12:17:20.734Z,5.40
2019-03-18T12:19:53.392Z,5.44
2019-03-18T12:22:24.049Z,5.61
2019-03-18T12:24:54.566Z,5.72
2019-03-18T12:27:25.733Z,5.63
2019-03-18T12:29:54.905Z,5.83
2019-03-18T12:32:24.284Z,6.07
2019-03-18T12:34:54.022Z,6.20
2019-03-18T12:37:23.408Z,6.24
2019-03-18T12:39:52.659Z,6.40
2019-03-18T12:42:22.014Z,6.20
2019-03-18T12:44:51.435Z,6.23
2019-03-18T12:47:20.824Z,6.26
2019-03-18T12:49:50.620Z,6.29
2019-03-18T12:52:19.799Z,6.23
2019-03-18T12:54:48.964Z,6.38
2019-03-18T12:57:18.119Z,6.50
2019-03-18T12:59:47.408Z,6.78
2019-03-18T13:02:16.598Z,6.92
2019-03-18T13:04:46.222Z,7.17
2019-03-18T13:07:15.732Z,7.00
2019-03-18T13:09:45.015Z,6.82
2019-03-18T13:12:14.177Z,6.87
2019-03-18T13:14:43.625Z,6.89
2019-03-18T13:17:13.005Z,6.87
2019-03-18T13:19:42.154Z,6.75
2019-03-18T13:22:12.244Z,6.81
2019-03-18T13:24:41.500Z,6.93
2019-03-18T13:27:10.700Z,6.89
2019-03-18T13:29:39.853Z,6.95
2019-03-18T13:32:09.256Z,7.02
2019-03-18T13:34:38.461Z,6.93
2019-03-18T13:37:07.657Z,6.88
2019-03-18T13:39:36.869Z,6.92
2019-03-18T13:42:06.450Z,6.78
2019-03-18T13:44:35.619Z,6.77
2019-03-18T13:47:04.793Z,6.78
2019-03-18T13:49:34.042Z,6.89
2019-03-18T13:52:03.227Z,6.89
2019-03-18T13:54:32.807Z,7.15
2019-03-18T13:57:02.054Z,6.80
2019-03-18T13:59:31.264Z,6.88
2019-03-18T14:02:00.432Z,6.78
2019-03-18T14:04:30.598Z,6.74
2019-03-18T14:06:59.974Z,6.56
2019-03-18T14:09:29.192Z,6.57
2019-03-18T14:11:58.606Z,6.53
2019-03-18T14:14:28.066Z,6.53
2019-03-18T14:16:58.015Z,6.62
2019-03-18T14:19:27.921Z,6.63
2019-03-18T14:21:57.184Z,6.60
2019-03-18T14:24:26.409Z,6.77
2019-03-18T14:26:55.877Z,6.52
2019-03-18T14:29:25.204Z,6.56
2019-03-18T14:31:54.860Z,6.58
2019-03-18T14:34:24.066Z,6.57
2019-03-18T14:36:53.169Z,6.55
2019-03-18T14:39:22.436Z,6.46
2019-03-18T14:41:53.937Z,6.38
2019-03-18T14:44:23.366Z,6.48
2019-03-18T14:46:52.566Z,6.42
2019-03-18T14:49:21.846Z,6.48
2019-03-18T14:51:51.109Z,6.44
2019-03-18T14:54:20.342Z,6.43
2019-03-18T14:56:49.490Z,6.45
2019-03-18T14:59:19.143Z,6.34
2019-03-18T15:01:48.314Z,6.21
2019-03-18T15:04:18.013Z,6.18
2019-03-18T15:06:47.574Z,6.37
2019-03-18T15:09:16.784Z,6.28
2019-03-18T15:11:46.112Z,6.35
2019-03-18T15:14:15.244Z,6.43
2019-03-18T15:16:44.425Z,6.48
2019-03-18T15:19:13.701Z,6.34
2019-03-18T15:21:43.254Z,6.31
2019-03-18T15:24:16.876Z,6.25
2019-03-18T15:26:47.001Z,6.36
2019-03-18T15:29:16.600Z,6.37
2019-03-18T15:31:45.745Z,6.36
2019-03-18T15:34:14.943Z,6.38
2019-03-18T15:36:44.084Z,6.55
2019-03-18T15:39:13.442Z,6.59
2019-03-18T15:41:42.654Z,6.65
2019-03-18T15:44:11.853Z,6.57
2019-03-18T15:46:41.874Z,6.50
2019-03-18T15:49:11.168Z,6.54
2019-03-18T15:51:40.320Z,6.54
2019-03-18T15:54:09.632Z,6.48
2019-03-18T15:56:38.920Z,6.51
2019-03-18T15:59:08.232Z,6.41
2019-03-18T16:01:37.383Z,6.44
2019-03-18T16:04:06.708Z,6.29
2019-03-18T16:06:35.992Z,6.21
2019-03-18T16:09:06.719Z,6.13
2019-03-18T16:11:35.942Z,6.18
2019-03-18T16:14:06.016Z,6.17
2019-03-18T16:16:35.773Z,6.28
2019-03-18T16:19:05.308Z,6.17
2019-03-18T16:21:34.456Z,6.27
2019-03-18T16:24:03.790Z,6.29
2019-03-18T16:26:33.541Z,6.19
2019-03-18T16:29:02.704Z,6.18
2019-03-18T16:31:31.980Z,6.12
2019-03-18T16:34:01.177Z,6.09
2019-03-18T16:36:30.319Z,6.01
2019-03-18T16:38:59.988Z,6.01
2019-03-18T16:41:29.114Z,5.85
2019-03-18T16:43:58.292Z,5.61
2019-03-18T16:46:27.409Z,5.54
2019-03-18T16:48:56.590Z,5.44
2019-03-18T16:51:25.744Z,5.57
2019-03-18T16:53:54.955Z,5.53
2019-03-18T16:56:24.169Z,5.40
2019-03-18T16:58:53.770Z,5.51
2019-03-18T17:01:23.158Z,5.41
2019-03-18T17:03:52.553Z,5.32
2019-03-18T17:06:22.025Z,5.23
2019-03-18T17:08:52.078Z,5.13
2019-03-18T17:11:21.486Z,5.07
2019-03-18T17:13:50.761Z,5.00
2019-03-18T17:16:20.298Z,5.11
2019-03-18T17:18:49.810Z,4.94
2019-03-18T17:21:19.185Z,4.97
2019-03-18T17:23:48.669Z,4.96
2019-03-18T17:26:17.900Z,4.84
2019-03-18T17:28:47.763Z,4.76
2019-03-18T17:31:17.853Z,4.71
2019-03-18T17:33:47.301Z,4.74
2019-03-18T17:36:16.701Z,4.65
2019-03-18T17:38:46.077Z,4.64
2019-03-18T17:41:15.360Z,4.68
2019-03-18T17:43:44.598Z,4.66
2019-03-18T17:46:14.083Z,4.61
2019-03-18T17:48:43.771Z,4.62
2019-03-18T17:51:12.935Z,4.58
2019-03-18T17:53:42.069Z,4.57
2019-03-18T17:56:11.498Z,4.61
2019-03-18T17:58:41.285Z,4.52
2019-03-18T18:01:10.553Z,4.55
2019-03-18T18:03:40.066Z,4.44
2019-03-18T18:06:10.256Z,4.45
2019-03-18T18:08:39.728Z,4.52
2019-03-18T18:11:09.145Z,4.46
2019-03-18T18:13:38.670Z,4.49
2019-03-18T18:16:08.030Z,4.43
2019-03-18T18:18:37.547Z,4.42
2019-03-18T18:21:07.108Z,4.34
2019-03-18T18:23:36.317Z,4.47
2019-03-18T18:26:05.581Z,4.49
2019-03-18T18:28:34.754Z,4.40
2019-03-18T18:31:03.866Z,4.38
2019-03-18T18:33:33.009Z,4.34
2019-03-18T18:36:02.688Z,4.34
2019-03-18T18:38:31.812Z,4.29
2019-03-18T18:41:01.024Z,4.33
2019-03-18T18:43:30.645Z,4.38
2019-03-18T18:45:59.810Z,4.41
2019-03-18T18:48:29.036Z,4.28
2019-03-18T18:50:58.213Z,4.33
2019-03-18T18:53:27.408Z,4.22
2019-03-18T18:55:56.619Z,4.18
2019-03-18T18:58:26.426Z,4.09
2019-03-18T19:00:55.546Z,4.15
2019-03-18T19:03:24.697Z,4.21
2019-03-18T19:05:53.841Z,4.03
2019-03-18T19:08:23.011Z,3.96
2019-03-18T19:10:52.267Z,3.99
2019-03-18T19:13:21.617Z,3.83
2019-03-18T19:15:50.765Z,3.89
2019-03-18T19:18:19.920Z,3.85
2019-03-18T19:20:49.172Z,3.87
2019-03-18T19:23:18.530Z,3.93
2019-03-18T19:25:48.019Z,3.89
2019-03-18T19:28:17.139Z,3.76
2019-03-18T19:30:46.533Z,3.65
2019-03-18T19:33:15.699Z,4.01
2019-03-18T19:35:45.240Z,3.70
2019-03-18T19:38:14.685Z,3.59
2019-03-18T19:40:43.830Z,3.73
2019-03-18T19:43:13.114Z,3.90
2019-03-18T19:45:42.287Z,3.90
2019-03-18T19:48:11.482Z,3.83
2019-03-18T19:50:41.035Z,3.66
2019-03-18T19:53:10.384Z,3.44
2019-03-18T19:55:39.666Z,3.69
2019-03-18T19:58:09.088Z,3.80
2019-03-18T20:00:38.235Z,3.92
2019-03-18T20:03:07.521Z,3.87
2019-03-18T20:05:36.749Z,3.86
2019-03-18T20:08:06.040Z,3.80
2019-03-18T20:10:35.339Z,3.83
2019-03-18T20:13:05.093Z,3.69
2019-03-18T20:15:34.331Z,3.43
2019-03-18T20:18:03.896Z,3.33
2019-03-18T20:20:33.132Z,3.42
2019-03-18T20:23:02.357Z,3.31
2019-03-18T20:25:31.627Z,3.33
2019-03-18T20:28:00.781Z,3.43
2019-03-18T20:30:30.245Z,3.38
2019-03-18T20:32:59.551Z,3.45
2019-03-18T20:35:28.728Z,3.40
2019-03-18T20:37:57.902Z,3.39
2019-03-18T20:40:27.230Z,3.08
2019-03-18T20:42:56.866Z,3.09
2019-03-18T20:45:26.314Z,3.07
2019-03-18T20:47:55.549Z,3.01
2019-03-18T20:50:25.612Z,2.95
2019-03-18T20:52:54.915Z,2.84
2019-03-18T20:55:24.076Z,3.09
2019-03-18T20:57:53.244Z,2.99
2019-03-18T21:00:22.683Z,3.01
2019-03-18T21:02:51.836Z,2.98
2019-03-18T21:05:21.023Z,3.00
2019-03-18T21:07:50.353Z,2.92
2019-03-18T21:10:19.938Z,3.04
2019-03-18T21:12:49.110Z,2.92
2019-03-18T21:15:18.242Z,3.12
2019-03-18T21:17:47.603Z,2.93
2019-03-18T21:20:16.938Z,3.00
2019-03-18T21:22:46.239Z,2.93
2019-03-18T21:25:16.072Z,2.87
2019-03-18T21:27:47.889Z,2.97
2019-03-18T21:30:17.771Z,2.80
2019-03-18T21:33:08.177Z,2.68
2019-03-18T21:35:38.109Z,2.72
2019-03-18T21:38:10.805Z,2.71
2019-03-18T21:40:40.039Z,2.73
2019-03-18T21:43:09.330Z,2.80
2019-03-18T21:45:38.917Z,2.82
2019-03-18T21:48:08.171Z,2.77
2019-03-18T21:50:37.393Z,2.75
2019-03-18T21:53:06.825Z,2.66
2019-03-18T21:55:36.015Z,2.78
2019-03-18T21:58:05.573Z,2.82
2019-03-18T22:00:34.821Z,2.83
2019-03-18T22:03:04.087Z,2.59
2019-03-18T22:05:33.304Z,2.45
2019-03-18T22:08:02.749Z,2.43
2019-03-18T22:10:32.025Z,2.38
2019-03-18T22:13:01.393Z,2.35
2019-03-18T22:15:30.701Z,2.49
2019-03-18T22:17:59.966Z,2.46
2019-03-18T22:20:29.199Z,2.57
2019-03-18T22:22:58.451Z,2.46
2019-03-18T22:25:27.756Z,2.25
2019-03-18T22:27:57.543Z,2.26
2019-03-18T22:30:26.858Z,2.24
2019-03-18T22:32:56.058Z,2.15
2019-03-18T22:35:25.337Z,2.04
2019-03-18T22:37:54.815Z,2.08
2019-03-18T22:40:24.079Z,2.19
2019-03-18T22:42:53.815Z,2.06
2019-03-18T22:45:23.115Z,2.12
2019-03-18T22:47:52.371Z,2.03
2019-03-18T22:50:21.720Z,2.15
2019-03-18T22:52:51.356Z,2.18
2019-03-18T22:55:20.702Z,1.94
2019-03-18T22:57:49.978Z,1.87
2019-03-18T23:00:40.444Z,1.93
2019-03-18T23:03:09.863Z,1.86
2019-03-18T23:05:39.371Z,1.96
2019-03-18T23:08:08.658Z,1.70
2019-03-18T23:10:37.926Z,1.60
2019-03-18T23:13:07.129Z,1.60
2019-03-18T23:15:36.398Z,1.75
2019-03-18T23:18:05.629Z,1.58
2019-03-18T23:20:34.903Z,1.50
2019-03-18T23:23:04.551Z,1.41
2019-03-18T23:25:34.003Z,1.36
2019-03-18T23:28:03.440Z,1.32
2019-03-18T23:30:32.827Z,1.49
2019-03-18T23:33:02.222Z,1.43
2019-03-18T23:35:31.501Z,1.48
2019-03-18T23:38:00.810Z,1.43
2019-03-18T23:40:30.181Z,1.25
2019-03-18T23:42:59.410Z,1.24
2019-03-18T23:45:28.981Z,1.58
2019-03-18T23:47:58.423Z,1.34
2019-03-18T23:50:27.848Z,1.29
2019-03-18T23:52:57.121Z,1.26
2019-03-18T23:55:26.564Z,1.23
2019-03-18T23:57:56.251Z,1.37
